createdAt,value
2019-01-27T00:01:03.411Z,5.10
2019-01-27T00:03:32.419Z,5.10
2019-01-27T00:06:00.316Z,5.00
2019-01-27T00:08:28.212Z,5.00
2019-01-27T00:10:56.081Z,5.00
2019-01-27T00:13:24.034Z,5.00
2019-01-27T00:15:51.749Z,5.00
2019-01-27T00:18:19.607Z,5.10
2019-01-27T00:20:47.440Z,5.10
2019-01-27T00:23:15.294Z,5.10
2019-01-27T00:25:43.002Z,5.10
2019-01-27T00:28:10.738Z,5.20
2019-01-27T00:30:38.462Z,5.20
2019-01-27T00:33:06.593Z,5.30
2019-01-27T00:35:34.266Z,5.30
2019-01-27T00:38:02.090Z,5.30
2019-01-27T00:40:30.131Z,5.40
2019-01-27T00:42:58.019Z,5.30
2019-01-27T00:45:25.800Z,5.30
2019-01-27T00:47:53.470Z,5.20
2019-01-27T00:50:21.319Z,5.10
2019-01-27T00:52:48.951Z,5.10
2019-01-27T00:55:18.233Z,5.00
2019-01-27T00:57:47.589Z,5.00
2019-01-27T01:00:18.349Z,5.00
2019-01-27T01:02:47.630Z,5.00
2019-01-27T01:05:15.722Z,5.00
2019-01-27T01:07:44.397Z,4.90
2019-01-27T01:10:15.169Z,4.90
2019-01-27T01:12:44.524Z,4.90
2019-01-27T01:15:13.000Z,4.80
2019-01-27T01:17:41.497Z,4.80
2019-01-27T01:20:12.169Z,4.80
2019-01-27T01:22:41.482Z,4.80
2019-01-27T01:25:18.612Z,4.90
2019-01-27T01:27:48.437Z,4.80
2019-01-27T01:30:18.661Z,4.90
2019-01-27T01:32:48.144Z,4.90
2019-01-27T01:35:16.009Z,4.90
2019-01-27T01:37:43.858Z,4.90
2019-01-27T01:40:14.147Z,4.80
2019-01-27T01:42:43.797Z,4.80
2019-01-27T01:45:26.190Z,4.80
2019-01-27T01:47:55.647Z,4.80
2019-01-27T01:50:23.552Z,4.90
2019-01-27T01:52:51.336Z,4.90
2019-01-27T01:55:19.153Z,5.00
2019-01-27T01:57:47.106Z,5.00
2019-01-27T02:00:17.418Z,4.90
2019-01-27T02:02:46.852Z,5.00
2019-01-27T02:05:14.913Z,5.00
2019-01-27T02:07:44.315Z,5.00
2019-01-27T02:10:13.205Z,5.00
2019-01-27T02:12:42.740Z,4.90
2019-01-27T02:15:35.249Z,5.00
2019-01-27T02:18:04.625Z,5.00
2019-01-27T02:20:32.433Z,5.00
2019-01-27T02:23:00.179Z,5.00
2019-01-27T02:25:28.134Z,4.90
2019-01-27T02:27:55.869Z,5.00
2019-01-27T02:30:23.760Z,5.00
2019-01-27T02:32:51.572Z,5.00
2019-01-27T02:35:19.464Z,5.00
2019-01-27T02:37:47.392Z,5.00
2019-01-27T02:40:15.148Z,5.00
2019-01-27T02:42:43.022Z,5.00
2019-01-27T02:45:11.029Z,5.10
2019-01-27T02:47:40.330Z,5.10
2019-01-27T02:50:08.314Z,5.10
2019-01-27T02:52:37.597Z,5.20
2019-01-27T02:55:06.066Z,5.20
2019-01-27T02:57:34.859Z,5.30
2019-01-27T03:00:05.152Z,5.30
2019-01-27T03:02:34.444Z,5.30
2019-01-27T03:05:06.129Z,5.30
2019-01-27T03:07:37.544Z,5.30
2019-01-27T03:10:09.537Z,5.20
2019-01-27T03:12:38.881Z,5.30
2019-01-27T03:15:07.885Z,5.30
2019-01-27T03:17:37.178Z,5.30
2019-01-27T03:20:07.225Z,5.40
2019-01-27T03:22:36.500Z,5.50
2019-01-27T03:25:06.263Z,5.40
2019-01-27T03:27:35.636Z,5.50
2019-01-27T03:30:06.069Z,5.50
2019-01-27T03:32:35.357Z,5.50
2019-01-27T03:35:03.832Z,5.60
2019-01-27T03:37:33.097Z,5.60
2019-01-27T03:40:00.867Z,5.60
2019-01-27T03:42:30.213Z,5.60
2019-01-27T03:44:57.886Z,5.60
2019-01-27T03:47:25.633Z,5.70
2019-01-27T03:49:53.298Z,5.70
2019-01-27T03:52:21.262Z,5.80
2019-01-27T03:54:48.924Z,5.70
2019-01-27T03:57:16.784Z,5.70
2019-01-27T03:59:44.462Z,5.70
2019-01-27T04:02:12.201Z,5.70
2019-01-27T04:04:39.890Z,5.80
2019-01-27T04:07:07.732Z,5.70
2019-01-27T04:09:35.488Z,5.70
2019-01-27T04:12:03.609Z,5.60
2019-01-27T04:14:31.469Z,5.60
2019-01-27T04:16:59.422Z,5.50
2019-01-27T04:19:27.081Z,5.50
2019-01-27T04:21:55.046Z,5.50
2019-01-27T04:24:22.886Z,5.50
2019-01-27T04:26:50.560Z,5.50
2019-01-27T04:29:18.397Z,5.50
2019-01-27T04:31:46.081Z,5.50
2019-01-27T04:34:13.755Z,5.50
2019-01-27T04:36:41.512Z,5.50
2019-01-27T04:39:10.127Z,5.50
2019-01-27T04:41:38.080Z,5.40
2019-01-27T04:44:05.807Z,5.40
2019-01-27T04:46:33.479Z,5.50
2019-01-27T04:49:01.261Z,5.50
2019-01-27T04:51:28.921Z,5.40
2019-01-27T04:53:56.757Z,5.50
2019-01-27T04:56:24.537Z,5.60
2019-01-27T04:58:52.206Z,5.60
2019-01-27T05:01:20.070Z,5.60
2019-01-27T05:03:52.652Z,5.60
2019-01-27T05:06:22.007Z,5.60
2019-01-27T05:08:49.899Z,5.70
2019-01-27T05:11:17.748Z,5.70
2019-01-27T05:13:45.504Z,5.70
2019-01-27T05:16:13.436Z,5.70
2019-01-27T05:18:41.095Z,5.80
2019-01-27T05:21:09.368Z,5.80
2019-01-27T05:23:37.221Z,5.80
2019-01-27T05:26:05.047Z,5.90
2019-01-27T05:28:32.950Z,5.90
2019-01-27T05:31:00.705Z,5.90
2019-01-27T05:33:28.368Z,5.90
2019-01-27T05:35:56.132Z,5.90
2019-01-27T05:38:23.712Z,5.90
2019-01-27T05:40:51.454Z,5.80
2019-01-27T05:43:19.014Z,5.90
2019-01-27T05:45:46.751Z,5.90
2019-01-27T05:48:14.572Z,5.90
2019-01-27T05:50:42.228Z,5.90
2019-01-27T05:53:10.050Z,5.80
2019-01-27T05:55:37.833Z,5.90
2019-01-27T05:58:05.565Z,5.90
2019-01-27T06:00:37.304Z,5.90
2019-01-27T06:03:06.676Z,6.00
2019-01-27T06:05:34.345Z,6.00
2019-01-27T06:08:02.077Z,6.10
2019-01-27T06:10:30.041Z,6.10
2019-01-27T06:12:57.970Z,6.10
2019-01-27T06:15:25.663Z,6.20
2019-01-27T06:17:53.577Z,6.20
2019-01-27T06:20:21.348Z,6.20
2019-01-27T06:22:49.173Z,6.20
2019-01-27T06:25:16.987Z,6.20
2019-01-27T06:27:45.329Z,6.20
2019-01-27T06:30:18.481Z,6.20
2019-01-27T06:33:13.061Z,6.20
2019-01-27T06:35:42.716Z,6.20
2019-01-27T06:38:11.322Z,6.30
2019-01-27T06:40:39.076Z,6.20
2019-01-27T06:43:07.277Z,6.30
2019-01-27T06:45:34.969Z,6.30
2019-01-27T06:48:02.738Z,6.40
2019-01-27T06:50:30.768Z,6.50
2019-01-27T06:52:58.552Z,6.50
2019-01-27T06:55:26.326Z,6.40
2019-01-27T06:57:53.988Z,6.30
2019-01-27T07:00:39.114Z,6.40
2019-01-27T07:03:12.440Z,6.40
2019-01-27T07:05:50.133Z,6.40
2019-01-27T07:08:34.080Z,6.30
2019-01-27T07:11:23.382Z,6.20
2019-01-27T07:14:21.381Z,6.20
2019-01-27T07:17:09.000Z,6.20
2019-01-27T07:19:47.937Z,6.10
2019-01-27T07:22:36.709Z,6.10
2019-01-27T07:25:25.150Z,6.10
2019-01-27T07:28:20.012Z,6.10
2019-01-27T07:31:20.945Z,6.10
2019-01-27T07:34:08.576Z,6.10
2019-01-27T07:36:45.500Z,6.10
2019-01-27T07:39:34.302Z,6.00
2019-01-27T07:42:16.787Z,6.00
2019-01-27T07:45:20.891Z,5.90
2019-01-27T07:47:57.476Z,5.90
2019-01-27T07:50:45.810Z,6.00
2019-01-27T07:53:34.700Z,6.00
2019-01-27T07:56:36.143Z,6.10
2019-01-27T07:59:30.601Z,6.20
2019-01-27T08:02:14.966Z,6.20
2019-01-27T08:05:00.573Z,6.20
2019-01-27T08:07:47.791Z,6.20
2019-01-27T08:10:25.836Z,6.20
2019-01-27T08:13:13.467Z,6.20
2019-01-27T08:16:07.925Z,6.20
2019-01-27T08:19:02.569Z,6.30
2019-01-27T08:21:51.418Z,6.40
2019-01-27T08:24:46.124Z,6.50
2019-01-27T08:27:33.617Z,6.60
2019-01-27T08:30:11.084Z,6.70
2019-01-27T08:33:18.507Z,6.70
2019-01-27T08:36:02.542Z,6.70
2019-01-27T08:38:51.424Z,6.70
2019-01-27T08:41:29.617Z,6.70
2019-01-27T08:44:18.628Z,6.70
2019-01-27T08:46:52.074Z,6.70
2019-01-27T08:49:20.217Z,6.70
2019-01-27T08:51:47.888Z,6.70
2019-01-27T08:54:15.685Z,6.70
2019-01-27T08:56:43.518Z,6.80
2019-01-27T08:59:11.287Z,6.80
2019-01-27T09:01:58.476Z,6.80
2019-01-27T09:04:43.118Z,6.90
2019-01-27T09:07:49.886Z,6.80
2019-01-27T09:10:40.870Z,7.00
2019-01-27T09:13:32.968Z,6.90
2019-01-27T09:16:21.680Z,6.90
2019-01-27T09:19:11.461Z,7.00
2019-01-27T09:22:01.426Z,7.00
2019-01-27T09:25:07.591Z,7.00
2019-01-27T09:27:59.004Z,7.00
2019-01-27T09:30:50.880Z,6.90
2019-01-27T09:33:42.438Z,6.90
2019-01-27T09:36:31.340Z,7.00
2019-01-27T09:39:18.922Z,7.00
2019-01-27T09:42:13.450Z,6.90
2019-01-27T09:44:50.223Z,7.00
2019-01-27T09:47:26.552Z,7.00
2019-01-27T09:50:29.525Z,7.10
2019-01-27T09:53:04.002Z,7.10
2019-01-27T09:55:53.051Z,7.10
2019-01-27T09:58:36.912Z,7.10
2019-01-27T10:01:18.389Z,7.20
2019-01-27T10:04:13.109Z,7.20
2019-01-27T10:07:14.051Z,7.20
2019-01-27T10:10:01.608Z,7.30
2019-01-27T10:12:39.927Z,7.40
2019-01-27T10:15:28.134Z,7.50
2019-01-27T10:18:23.110Z,7.60
2019-01-27T10:21:10.266Z,7.60
2019-01-27T10:23:54.330Z,7.60
2019-01-27T10:26:48.878Z,7.60
2019-01-27T10:29:34.673Z,7.70
2019-01-27T10:32:26.433Z,7.80
2019-01-27T10:35:01.299Z,7.80
2019-01-27T10:37:48.832Z,7.70
2019-01-27T10:40:40.382Z,7.70
2019-01-27T10:43:21.246Z,7.70
2019-01-27T10:46:05.361Z,7.70
2019-01-27T10:48:59.979Z,7.70
2019-01-27T10:52:05.512Z,7.80
2019-01-27T10:54:57.347Z,7.90
2019-01-27T10:57:35.713Z,8.00
2019-01-27T11:00:27.513Z,8.30
2019-01-27T11:03:15.234Z,8.40
2019-01-27T11:05:51.155Z,8.60
2019-01-27T11:08:29.708Z,8.70
2019-01-27T11:11:27.737Z,8.80
2019-01-27T11:14:32.052Z,8.80
2019-01-27T11:17:19.473Z,9.00
2019-01-27T11:20:08.291Z,9.20
2019-01-27T11:22:53.742Z,9.10
2019-01-27T11:25:41.466Z,9.00
2019-01-27T11:28:21.602Z,9.00
2019-01-27T11:31:09.181Z,8.90
2019-01-27T11:33:46.568Z,8.90
2019-01-27T11:36:34.375Z,8.80
2019-01-27T11:39:25.130Z,8.80
2019-01-27T11:42:21.948Z,8.80
2019-01-27T11:45:10.762Z,8.70
2019-01-27T11:48:08.881Z,8.70
2019-01-27T11:50:45.585Z,8.70
2019-01-27T11:53:15.020Z,8.70
2019-01-27T11:55:42.824Z,8.70
2019-01-27T11:58:10.734Z,8.70
2019-01-27T12:00:41.271Z,8.70
2019-01-27T12:03:09.492Z,8.70
2019-01-27T12:05:37.275Z,8.60
2019-01-27T12:08:05.431Z,8.60
2019-01-27T12:10:33.369Z,8.60
2019-01-27T12:13:01.357Z,8.60
2019-01-27T12:15:29.269Z,8.60
2019-01-27T12:17:57.092Z,8.40
2019-01-27T12:20:24.825Z,8.40
2019-01-27T12:22:52.505Z,8.40
2019-01-27T12:25:20.311Z,8.40
2019-01-27T12:27:48.100Z,8.40
2019-01-27T12:30:17.080Z,8.30
2019-01-27T12:32:45.472Z,8.40
2019-01-27T12:35:13.466Z,8.40
2019-01-27T12:37:41.373Z,8.40
2019-01-27T12:40:12.536Z,8.50
2019-01-27T12:42:41.977Z,8.50
2019-01-27T12:45:11.667Z,8.60
2019-01-27T12:47:41.064Z,8.60
2019-01-27T12:50:10.959Z,8.60
2019-01-27T12:52:40.364Z,8.60
2019-01-27T12:55:12.831Z,8.60
2019-01-27T12:57:40.652Z,8.60
2019-01-27T13:00:14.914Z,8.60
2019-01-27T13:02:44.225Z,8.70
2019-01-27T13:05:12.438Z,8.70
2019-01-27T13:07:40.456Z,8.70
2019-01-27T13:10:10.717Z,8.60
2019-01-27T13:12:40.105Z,8.40
2019-01-27T13:15:10.141Z,8.30
2019-01-27T13:17:39.534Z,8.30
2019-01-27T13:20:08.128Z,8.30
2019-01-27T13:22:37.499Z,8.30
2019-01-27T13:25:06.379Z,8.30
2019-01-27T13:27:35.806Z,8.30
2019-01-27T13:30:06.935Z,8.30
2019-01-27T13:32:36.391Z,8.30
2019-01-27T13:35:04.648Z,8.30
2019-01-27T13:37:34.014Z,8.30
2019-01-27T13:40:01.776Z,8.30
2019-01-27T13:42:31.194Z,8.30
2019-01-27T13:44:59.051Z,8.20
2019-01-27T13:47:26.976Z,8.20
2019-01-27T13:49:54.753Z,8.20
2019-01-27T13:52:22.461Z,8.10
2019-01-27T13:54:50.267Z,8.10
2019-01-27T13:57:18.011Z,8.10
2019-01-27T13:59:45.806Z,8.10
2019-01-27T14:02:13.579Z,8.30
2019-01-27T14:04:48.321Z,8.30
2019-01-27T14:07:11.146Z,8.40
2019-01-27T14:09:39.261Z,8.50
2019-01-27T14:12:07.092Z,8.50
2019-01-27T14:14:34.953Z,8.60
2019-01-27T14:17:02.671Z,8.60
2019-01-27T14:19:30.685Z,8.70
2019-01-27T14:21:58.411Z,8.70
2019-01-27T14:24:26.183Z,8.70
2019-01-27T14:26:53.924Z,8.70
2019-01-27T14:29:21.787Z,8.60
2019-01-27T14:31:49.693Z,8.60
2019-01-27T14:34:17.513Z,8.60
2019-01-27T14:36:45.242Z,8.60
2019-01-27T14:39:13.264Z,8.60
2019-01-27T14:41:41.075Z,8.60
2019-01-27T14:44:09.085Z,8.60
2019-01-27T14:46:36.907Z,8.60
2019-01-27T14:49:04.887Z,8.60
2019-01-27T14:51:32.736Z,8.60
2019-01-27T14:54:00.459Z,8.50
2019-01-27T14:56:28.378Z,8.50
2019-01-27T14:58:56.100Z,8.40
2019-01-27T15:01:24.005Z,8.40
2019-01-27T15:03:51.744Z,8.40
2019-01-27T15:06:19.534Z,8.40
2019-01-27T15:08:47.232Z,8.40
2019-01-27T15:11:15.153Z,8.30
2019-01-27T15:13:42.966Z,8.40
2019-01-27T15:16:10.976Z,8.30
2019-01-27T15:18:38.795Z,8.30
2019-01-27T15:21:13.865Z,8.30
2019-01-27T15:23:41.679Z,8.30
2019-01-27T15:26:09.588Z,8.30
2019-01-27T15:28:37.458Z,8.30
2019-01-27T15:31:10.445Z,8.40
2019-01-27T15:33:38.422Z,8.30
2019-01-27T15:36:06.241Z,8.30
2019-01-27T15:38:34.044Z,8.30
2019-01-27T15:41:01.857Z,8.20
2019-01-27T15:43:30.089Z,8.20
2019-01-27T15:45:57.779Z,8.10
2019-01-27T15:48:25.625Z,8.10
2019-01-27T15:50:53.381Z,8.20
2019-01-27T15:53:21.195Z,8.10
2019-01-27T15:55:49.034Z,8.10
2019-01-27T15:58:16.925Z,8.10
2019-01-27T16:00:44.771Z,8.10
2019-01-27T16:03:12.650Z,8.10
2019-01-27T16:05:40.382Z,8.10
2019-01-27T16:08:08.197Z,8.10
2019-01-27T16:10:36.102Z,8.10
2019-01-27T16:13:03.948Z,8.00
2019-01-27T16:15:32.489Z,8.00
2019-01-27T16:18:01.679Z,8.00
2019-01-27T16:20:31.033Z,8.00
2019-01-27T16:23:18.547Z,7.90
2019-01-27T16:25:47.923Z,7.90
2019-01-27T16:28:15.914Z,7.80
2019-01-27T16:31:02.185Z,7.80
2019-01-27T16:33:54.070Z,7.80
2019-01-27T16:36:23.360Z,7.70
2019-01-27T16:38:51.290Z,7.70
2019-01-27T16:41:19.045Z,7.70
2019-01-27T16:43:46.930Z,7.60
2019-01-27T16:46:14.889Z,7.60
2019-01-27T16:48:42.631Z,7.60
2019-01-27T16:51:10.398Z,7.70
2019-01-27T16:53:38.300Z,7.70
2019-01-27T16:56:06.140Z,7.70
2019-01-27T16:58:34.291Z,7.70
2019-01-27T17:01:04.040Z,7.80
2019-01-27T17:03:32.186Z,7.70
2019-01-27T17:06:00.166Z,7.70
2019-01-27T17:08:28.185Z,7.60
2019-01-27T17:10:56.090Z,7.50
2019-01-27T17:13:23.872Z,7.40
2019-01-27T17:15:53.370Z,7.30
2019-01-27T17:18:21.209Z,7.20
2019-01-27T17:20:49.132Z,7.20
2019-01-27T17:23:16.987Z,7.10
2019-01-27T17:25:44.778Z,7.00
2019-01-27T17:28:12.627Z,6.90
2019-01-27T17:30:40.405Z,6.90
2019-01-27T17:33:08.535Z,6.80
2019-01-27T17:35:36.331Z,6.80
2019-01-27T17:38:04.597Z,6.80
2019-01-27T17:40:32.428Z,6.80
2019-01-27T17:43:00.270Z,6.70
2019-01-27T17:45:28.358Z,6.70
2019-01-27T17:47:56.300Z,6.70
2019-01-27T17:50:24.304Z,6.60
2019-01-27T17:52:52.326Z,6.60
2019-01-27T17:55:39.476Z,6.60
2019-01-27T17:58:57.770Z,6.60
2019-01-27T18:02:04.915Z,6.60
2019-01-27T18:04:56.712Z,6.50
2019-01-27T18:07:44.217Z,6.60
2019-01-27T18:10:48.321Z,6.60
2019-01-27T18:13:46.435Z,6.60
2019-01-27T18:16:14.444Z,6.60
2019-01-27T18:18:42.416Z,6.60
2019-01-27T18:21:10.207Z,6.50
2019-01-27T18:23:38.751Z,6.50
2019-01-27T18:26:06.453Z,6.40
2019-01-27T18:28:34.264Z,6.40
2019-01-27T18:31:02.158Z,6.50
2019-01-27T18:33:30.301Z,6.40
2019-01-27T18:35:58.342Z,6.40
2019-01-27T18:38:26.378Z,6.40
2019-01-27T18:40:54.954Z,6.40
2019-01-27T18:43:23.100Z,6.40
2019-01-27T18:45:50.896Z,6.40
2019-01-27T18:48:18.979Z,6.40
2019-01-27T18:50:46.972Z,6.30
2019-01-27T18:53:43.360Z,6.30
2019-01-27T18:56:27.997Z,6.20
2019-01-27T18:59:35.420Z,6.10
2019-01-27T19:02:23.139Z,6.20
2019-01-27T19:05:10.930Z,6.10
2019-01-27T19:08:01.799Z,6.10
2019-01-27T19:10:49.575Z,6.10
2019-01-27T19:13:44.521Z,6.10
2019-01-27T19:16:36.270Z,6.00
2019-01-27T19:19:14.908Z,6.00
2019-01-27T19:22:07.081Z,6.00
2019-01-27T19:24:55.910Z,6.00
2019-01-27T19:27:54.077Z,6.00
2019-01-27T19:30:31.913Z,6.10
2019-01-27T19:33:23.462Z,6.00
2019-01-27T19:36:11.271Z,6.10
2019-01-27T19:39:18.513Z,6.10
2019-01-27T19:42:22.608Z,6.00
2019-01-27T19:45:00.581Z,6.00
2019-01-27T19:47:44.602Z,6.00
2019-01-27T19:50:32.178Z,5.90
2019-01-27T19:53:27.390Z,5.70
2019-01-27T19:56:20.279Z,5.70
2019-01-27T19:59:08.681Z,5.70
2019-01-27T20:01:53.348Z,5.60
2019-01-27T20:04:41.179Z,5.50
2019-01-27T20:07:28.991Z,5.50
2019-01-27T20:10:22.073Z,5.40
2019-01-27T20:13:09.877Z,5.30
2019-01-27T20:15:46.807Z,5.20
2019-01-27T20:18:44.633Z,5.10
2019-01-27T20:21:36.950Z,5.10
2019-01-27T20:24:16.683Z,5.00
2019-01-27T20:27:05.173Z,5.00
2019-01-27T20:30:00.250Z,4.90
2019-01-27T20:32:49.280Z,4.90
2019-01-27T20:35:46.114Z,4.90
2019-01-27T20:38:24.578Z,4.80
2019-01-27T20:41:03.337Z,4.70
2019-01-27T20:43:39.011Z,4.70
2019-01-27T20:46:31.147Z,4.50
2019-01-27T20:49:20.147Z,4.40
2019-01-27T20:52:11.966Z,4.30
2019-01-27T20:54:59.556Z,4.20
2019-01-27T20:57:44.482Z,4.30
2019-01-27T21:00:27.883Z,4.10
2019-01-27T21:03:22.617Z,4.10
2019-01-27T21:06:02.622Z,3.90
2019-01-27T21:08:41.100Z,3.80
2019-01-27T21:11:36.388Z,3.80
2019-01-27T21:14:12.486Z,3.60
2019-01-27T21:17:19.737Z,3.50
2019-01-27T21:19:53.015Z,3.40
2019-01-27T21:22:21.108Z,3.30
2019-01-27T21:24:49.213Z,3.20
2019-01-27T21:27:17.181Z,3.20
2019-01-27T21:29:45.188Z,3.10
2019-01-27T21:32:13.112Z,3.10
2019-01-27T21:34:40.936Z,3.10
2019-01-27T21:37:08.995Z,3.10
2019-01-27T21:39:36.831Z,3.00
2019-01-27T21:42:04.837Z,3.00
2019-01-27T21:44:32.697Z,2.90
2019-01-27T21:47:00.743Z,2.80
2019-01-27T21:49:28.968Z,2.70
2019-01-27T21:51:57.113Z,2.70
2019-01-27T21:54:25.026Z,2.60
2019-01-27T21:56:53.123Z,2.60
2019-01-27T21:59:21.043Z,2.50
2019-01-27T22:01:50.260Z,2.50
2019-01-27T22:04:18.283Z,2.50
2019-01-27T22:06:46.243Z,2.50
2019-01-27T22:09:14.306Z,2.50
2019-01-27T22:11:42.112Z,2.50
2019-01-27T22:14:10.512Z,2.50
2019-01-27T22:16:38.535Z,2.40
2019-01-27T22:19:06.388Z,2.40
2019-01-27T22:21:34.416Z,2.40
2019-01-27T22:24:02.400Z,2.40
2019-01-27T22:26:30.388Z,2.40
2019-01-27T22:28:58.379Z,2.50
2019-01-27T22:31:26.367Z,2.50
2019-01-27T22:33:54.412Z,2.50
2019-01-27T22:36:22.474Z,2.50
2019-01-27T22:38:51.316Z,2.40
2019-01-27T22:41:19.328Z,2.30
2019-01-27T22:43:47.967Z,2.30
2019-01-27T22:46:16.072Z,2.30
2019-01-27T22:48:44.152Z,2.40
2019-01-27T22:51:12.028Z,2.50
2019-01-27T22:53:39.961Z,2.40
2019-01-27T22:56:08.003Z,2.40
2019-01-27T22:58:35.920Z,2.30
2019-01-27T23:01:09.444Z,2.40
2019-01-27T23:03:41.159Z,2.50
2019-01-27T23:06:09.294Z,2.60
2019-01-27T23:08:37.047Z,2.60
2019-01-27T23:11:05.099Z,2.60
2019-01-27T23:13:33.082Z,2.60
2019-01-27T23:16:01.055Z,2.60
2019-01-27T23:18:29.248Z,2.60
2019-01-27T23:20:57.122Z,2.60
2019-01-27T23:23:24.987Z,2.60
2019-01-27T23:25:52.919Z,2.60
2019-01-27T23:28:20.868Z,2.60
2019-01-27T23:30:48.614Z,2.60
2019-01-27T23:33:17.567Z,2.70
2019-01-27T23:35:45.502Z,2.70
2019-01-27T23:38:13.636Z,2.70
2019-01-27T23:40:41.629Z,2.80
2019-01-27T23:43:09.443Z,2.80
2019-01-27T23:45:37.458Z,2.80
2019-01-27T23:48:05.441Z,2.80
2019-01-27T23:50:33.138Z,2.80
2019-01-27T23:53:01.250Z,2.90
2019-01-27T23:55:29.160Z,2.90
2019-01-27T23:57:57.021Z,3.00
